createdAt,value
2022-10-06T00:01:28.082Z,81.60
2022-10-06T00:03:56.236Z,81.70
2022-10-06T00:06:24.339Z,81.70
2022-10-06T00:08:52.441Z,81.80
2022-10-06T00:11:22.367Z,81.90
2022-10-06T00:13:50.417Z,81.90
2022-10-06T00:16:21.785Z,81.90
2022-10-06T00:18:49.919Z,81.80
2022-10-06T00:21:17.944Z,81.90
2022-10-06T00:23:46.036Z,81.90
2022-10-06T00:26:16.826Z,82.00
2022-10-06T00:28:47.973Z,82.00
2022-10-06T00:31:16.375Z,82.00
2022-10-06T00:33:44.649Z,82.10
2022-10-06T00:36:12.750Z,82.10
2022-10-06T00:38:40.796Z,82.10
2022-10-06T00:41:08.824Z,82.10
2022-10-06T00:43:49.503Z,82.10
2022-10-06T00:46:26.952Z,82.10
2022-10-06T00:48:57.005Z,82.10
2022-10-06T00:51:25.167Z,82.00
2022-10-06T00:53:53.206Z,82.00
2022-10-06T00:56:21.266Z,82.00
2022-10-06T00:58:51.974Z,82.10
2022-10-06T01:01:20.236Z,82.10
2022-10-06T01:03:50.182Z,82.00
2022-10-06T01:06:18.307Z,82.00
2022-10-06T01:08:46.512Z,82.10
2022-10-06T01:11:15.273Z,82.10
2022-10-06T01:13:44.389Z,82.00
2022-10-06T01:16:17.865Z,82.00
2022-10-06T01:18:46.550Z,82.00
2022-10-06T01:21:17.129Z,82.00
2022-10-06T01:23:46.604Z,82.00
2022-10-06T01:26:14.647Z,82.00
2022-10-06T01:28:45.582Z,82.10
2022-10-06T01:31:13.812Z,82.00
2022-10-06T01:33:42.019Z,82.00
2022-10-06T01:36:10.213Z,82.00
2022-10-06T01:38:38.313Z,81.90
2022-10-06T01:41:07.800Z,81.90
2022-10-06T01:43:35.880Z,81.90
2022-10-06T01:46:04.007Z,81.90
2022-10-06T01:48:32.669Z,81.90
2022-10-06T01:51:00.895Z,81.90
2022-10-06T01:53:29.909Z,81.90
2022-10-06T01:55:59.373Z,81.70
2022-10-06T01:58:29.078Z,81.80
2022-10-06T02:00:57.308Z,81.80
2022-10-06T02:03:25.350Z,81.70
2022-10-06T02:05:53.501Z,81.70
2022-10-06T02:08:21.572Z,81.70
2022-10-06T02:10:49.907Z,81.70
2022-10-06T02:13:18.025Z,81.60
2022-10-06T02:15:47.517Z,81.60
2022-10-06T02:18:15.721Z,81.60
2022-10-06T02:20:43.751Z,81.60
2022-10-06T02:23:11.793Z,81.60
2022-10-06T02:25:39.811Z,81.60
2022-10-06T02:28:07.911Z,81.60
2022-10-06T02:30:36.087Z,81.50
2022-10-06T02:33:05.563Z,81.60
2022-10-06T02:35:38.996Z,81.40
2022-10-06T02:38:07.057Z,81.40
2022-10-06T02:40:35.283Z,81.40
2022-10-06T02:43:03.395Z,81.50
2022-10-06T02:45:32.274Z,81.40
2022-10-06T02:48:00.350Z,81.40
2022-10-06T02:50:29.756Z,81.30
2022-10-06T02:53:00.967Z,81.30
2022-10-06T02:55:31.271Z,81.30
2022-10-06T02:58:00.234Z,81.30
2022-10-06T03:00:28.443Z,81.30
2022-10-06T03:02:56.609Z,81.30
2022-10-06T03:05:24.711Z,81.20
2022-10-06T03:07:54.251Z,81.20
2022-10-06T03:10:29.625Z,81.20
2022-10-06T03:12:58.084Z,81.20
2022-10-06T03:15:26.271Z,81.10
2022-10-06T03:17:54.501Z,81.20
2022-10-06T03:20:22.546Z,81.10
2022-10-06T03:22:50.804Z,81.10
2022-10-06T03:25:20.250Z,81.00
2022-10-06T03:27:51.072Z,81.10
2022-10-06T03:30:19.402Z,81.10
2022-10-06T03:32:47.712Z,81.00
2022-10-06T03:35:15.920Z,81.00
2022-10-06T03:37:44.004Z,81.00
2022-10-06T03:40:12.152Z,80.90
2022-10-06T03:42:41.632Z,80.90
2022-10-06T03:45:11.219Z,80.90
2022-10-06T03:47:39.265Z,80.80
2022-10-06T03:50:08.381Z,80.90
2022-10-06T03:52:37.348Z,80.90
2022-10-06T03:55:06.026Z,80.80
2022-10-06T03:57:34.059Z,80.90
2022-10-06T04:00:04.007Z,80.80
2022-10-06T04:02:35.041Z,80.70
2022-10-06T04:05:03.130Z,80.70
2022-10-06T04:07:31.203Z,80.70
2022-10-06T04:09:59.296Z,80.80
2022-10-06T04:12:27.346Z,80.70
2022-10-06T04:14:59.867Z,80.70
2022-10-06T04:17:29.676Z,80.70
2022-10-06T04:19:57.744Z,80.60
2022-10-06T04:22:25.849Z,80.60
2022-10-06T04:24:53.896Z,80.70
2022-10-06T04:27:30.957Z,80.60
2022-10-06T04:29:59.238Z,80.60
2022-10-06T04:32:27.402Z,80.50
2022-10-06T04:34:57.109Z,80.50
2022-10-06T04:37:25.209Z,80.50
2022-10-06T04:39:53.507Z,80.50
2022-10-06T04:42:21.611Z,80.50
2022-10-06T04:44:49.610Z,80.50
2022-10-06T04:47:17.610Z,80.50
2022-10-06T04:49:45.727Z,80.40
2022-10-06T04:52:15.180Z,80.50
2022-10-06T04:54:43.427Z,80.40
2022-10-06T04:57:11.483Z,80.40
2022-10-06T04:59:59.485Z,80.40
2022-10-06T05:02:31.202Z,80.40
2022-10-06T05:04:59.375Z,80.40
2022-10-06T05:07:28.934Z,80.30
2022-10-06T05:09:59.705Z,80.30
2022-10-06T05:12:31.094Z,80.30
2022-10-06T05:14:59.395Z,80.20
2022-10-06T05:17:27.461Z,80.20
2022-10-06T05:19:55.612Z,80.20
2022-10-06T05:22:23.726Z,80.20
2022-10-06T05:24:53.986Z,80.20
2022-10-06T05:27:22.068Z,80.20
2022-10-06T05:29:50.187Z,80.20
2022-10-06T05:32:18.232Z,80.10
2022-10-06T05:34:46.280Z,80.20
2022-10-06T05:37:14.405Z,80.10
2022-10-06T05:39:42.507Z,80.00
2022-10-06T05:42:11.955Z,80.00
2022-10-06T05:44:40.040Z,80.10
2022-10-06T05:47:08.185Z,80.00
2022-10-06T05:49:36.227Z,80.00
2022-10-06T05:52:04.321Z,80.00
2022-10-06T05:54:32.540Z,80.00
2022-10-06T05:57:00.606Z,79.90
2022-10-06T05:59:30.064Z,79.90
2022-10-06T06:01:58.202Z,80.00
2022-10-06T06:04:26.329Z,79.90
2022-10-06T06:06:54.403Z,79.90
2022-10-06T06:09:22.736Z,80.00
2022-10-06T06:11:52.564Z,79.90
2022-10-06T06:14:43.239Z,79.80
2022-10-06T06:17:11.703Z,79.80
2022-10-06T06:19:39.841Z,79.80
2022-10-06T06:22:07.923Z,79.80
2022-10-06T06:24:49.830Z,79.80
2022-10-06T06:27:18.157Z,79.90
2022-10-06T06:29:46.626Z,79.70
2022-10-06T06:32:16.028Z,79.80
2022-10-06T06:34:44.132Z,79.70
2022-10-06T06:37:15.265Z,79.70
2022-10-06T06:39:43.629Z,79.90
2022-10-06T06:42:11.732Z,79.70
2022-10-06T06:44:56.346Z,79.70
2022-10-06T06:47:26.768Z,79.70
2022-10-06T06:49:55.038Z,79.60
2022-10-06T06:52:23.346Z,79.60
2022-10-06T06:54:51.353Z,79.60
2022-10-06T06:57:19.445Z,79.60
2022-10-06T06:59:47.493Z,79.60
2022-10-06T07:02:15.623Z,79.60
2022-10-06T07:04:45.281Z,79.50
2022-10-06T07:07:13.380Z,79.50
2022-10-06T07:09:41.450Z,79.60
2022-10-06T07:12:11.588Z,79.50
2022-10-06T07:14:59.720Z,79.50
2022-10-06T07:17:52.659Z,79.40
2022-10-06T07:20:39.700Z,79.30
2022-10-06T07:23:26.777Z,79.40
2022-10-06T07:25:54.853Z,79.30
2022-10-06T07:28:23.010Z,79.40
2022-10-06T07:30:52.976Z,79.40
2022-10-06T07:33:21.039Z,79.30
2022-10-06T07:35:50.451Z,79.30
2022-10-06T07:38:18.896Z,79.30
2022-10-06T07:41:14.538Z,79.20
2022-10-06T07:43:35.037Z,79.30
2022-10-06T07:46:03.154Z,79.30
2022-10-06T07:48:31.348Z,79.20
2022-10-06T07:51:07.044Z,79.20
2022-10-06T07:53:35.630Z,79.30
2022-10-06T07:56:05.459Z,79.20
2022-10-06T07:58:33.779Z,79.30
2022-10-06T08:01:06.110Z,79.30
2022-10-06T08:03:34.182Z,79.20
2022-10-06T08:06:03.589Z,79.20
2022-10-06T08:08:32.629Z,79.10
2022-10-06T08:11:01.875Z,79.30
2022-10-06T08:13:33.117Z,79.20
2022-10-06T08:16:05.562Z,79.10
2022-10-06T08:18:46.024Z,79.10
2022-10-06T08:21:17.864Z,79.10
2022-10-06T08:23:46.430Z,79.20
2022-10-06T08:26:14.943Z,79.10
2022-10-06T08:28:46.607Z,79.20
2022-10-06T08:31:15.858Z,79.10
2022-10-06T08:33:44.409Z,79.10
2022-10-06T08:36:14.381Z,79.00
2022-10-06T08:38:45.637Z,79.00
2022-10-06T08:41:20.917Z,79.00
2022-10-06T08:43:51.367Z,79.00
2022-10-06T08:46:22.464Z,79.00
2022-10-06T08:48:58.810Z,79.10
2022-10-06T08:51:37.505Z,79.00
2022-10-06T08:54:09.198Z,79.00
2022-10-06T08:56:39.983Z,79.00
2022-10-06T08:59:09.838Z,79.00
2022-10-06T09:01:39.424Z,78.90
2022-10-06T09:04:08.792Z,78.90
2022-10-06T09:06:42.974Z,78.90
2022-10-06T09:09:26.022Z,79.00
2022-10-06T09:11:59.971Z,79.00
2022-10-06T09:14:31.579Z,78.90
2022-10-06T09:17:00.690Z,78.90
2022-10-06T09:19:33.845Z,78.90
2022-10-06T09:22:02.479Z,78.90
2022-10-06T09:24:34.721Z,79.00
2022-10-06T09:27:02.775Z,79.00
2022-10-06T09:29:33.858Z,79.00
2022-10-06T09:32:03.001Z,79.00
2022-10-06T09:34:36.422Z,78.90
2022-10-06T09:37:05.614Z,78.90
2022-10-06T09:39:37.283Z,79.00
2022-10-06T09:42:07.945Z,79.00
2022-10-06T09:47:37.230Z,79.00
2022-10-06T09:50:14.296Z,78.90
2022-10-06T09:52:42.545Z,78.90
2022-10-06T09:55:13.470Z,79.00
2022-10-06T09:57:48.318Z,79.10
2022-10-06T10:00:29.481Z,79.00
2022-10-06T10:02:58.611Z,79.00
2022-10-06T10:05:26.734Z,79.00
2022-10-06T10:08:06.290Z,79.00
2022-10-06T10:10:36.693Z,78.90
2022-10-06T10:13:05.292Z,79.00
2022-10-06T10:15:34.562Z,79.10
2022-10-06T10:18:04.247Z,79.00
2022-10-06T10:20:35.271Z,79.00
2022-10-06T10:23:07.321Z,78.90
2022-10-06T10:25:49.664Z,79.00
2022-10-06T10:28:51.873Z,79.00
2022-10-06T10:31:22.998Z,79.00
2022-10-06T10:34:05.364Z,79.00
2022-10-06T10:36:44.760Z,79.00
2022-10-06T10:39:14.753Z,79.00
2022-10-06T10:41:46.263Z,79.00
2022-10-06T10:44:22.075Z,79.00
2022-10-06T10:46:50.824Z,79.00
2022-10-06T10:49:20.260Z,79.00
2022-10-06T10:51:50.674Z,79.00
2022-10-06T10:54:19.848Z,79.00
2022-10-06T10:56:52.691Z,79.00
2022-10-06T10:59:25.612Z,79.00
2022-10-06T11:01:55.204Z,78.90
2022-10-06T11:04:23.275Z,78.90
2022-10-06T11:07:08.095Z,78.90
2022-10-06T11:09:40.183Z,78.80
2022-10-06T11:12:15.762Z,78.80
2022-10-06T11:14:51.934Z,78.70
2022-10-06T11:17:44.519Z,78.70
2022-10-06T11:20:25.897Z,78.70
2022-10-06T11:22:56.228Z,78.60
2022-10-06T11:25:28.306Z,78.60
2022-10-06T11:28:04.975Z,78.60
2022-10-06T11:30:33.377Z,78.50
2022-10-06T11:33:07.109Z,78.50
2022-10-06T11:35:36.788Z,78.40
2022-10-06T11:38:06.585Z,78.30
2022-10-06T11:40:43.460Z,78.40
2022-10-06T11:43:17.560Z,78.30
2022-10-06T11:45:49.906Z,78.30
2022-10-06T11:48:23.525Z,78.30
2022-10-06T11:50:55.335Z,78.20
2022-10-06T11:53:39.274Z,78.20
2022-10-06T11:56:38.053Z,78.10
2022-10-06T11:59:25.103Z,78.10
2022-10-06T12:02:00.889Z,78.00
2022-10-06T12:04:29.217Z,78.10
2022-10-06T12:07:03.884Z,78.00
2022-10-06T12:09:55.055Z,77.90
2022-10-06T12:13:02.063Z,77.90
2022-10-06T12:17:06.027Z,77.80
2022-10-06T12:18:46.997Z,77.80
2022-10-06T12:21:32.146Z,77.70
2022-10-06T12:24:05.245Z,77.70
2022-10-06T12:26:38.641Z,77.60
2022-10-06T12:29:24.782Z,77.70
2022-10-06T12:31:58.129Z,77.60
2022-10-06T12:34:47.590Z,77.50
2022-10-06T12:37:41.186Z,77.60
2022-10-06T12:40:47.929Z,77.50
2022-10-06T12:43:31.689Z,77.60
2022-10-06T12:46:01.373Z,77.50
2022-10-06T12:48:37.191Z,77.60
2022-10-06T12:51:08.353Z,77.40
2022-10-06T12:53:38.670Z,77.50
2022-10-06T12:56:07.098Z,77.40
2022-10-06T12:58:35.352Z,77.40
2022-10-06T13:01:03.977Z,77.40
2022-10-06T13:03:33.681Z,77.40
2022-10-06T13:06:03.228Z,77.40
2022-10-06T13:08:32.258Z,77.50
2022-10-06T13:11:14.105Z,77.50
2022-10-06T13:13:47.481Z,77.50
2022-10-06T13:16:15.750Z,77.40
2022-10-06T13:18:45.174Z,77.40
2022-10-06T13:21:14.314Z,77.40
2022-10-06T13:23:42.431Z,77.40
2022-10-06T13:26:19.870Z,77.30
2022-10-06T13:28:48.630Z,77.20
2022-10-06T13:31:22.018Z,77.30
2022-10-06T13:33:53.059Z,77.30
2022-10-06T13:36:23.480Z,77.50
2022-10-06T13:38:51.722Z,77.40
2022-10-06T13:41:25.498Z,77.40
2022-10-06T13:43:54.311Z,77.30
2022-10-06T13:46:23.632Z,77.40
2022-10-06T13:48:54.896Z,77.40
2022-10-06T13:51:24.312Z,77.30
2022-10-06T13:53:53.516Z,77.40
2022-10-06T13:56:34.827Z,77.30
2022-10-06T13:59:40.130Z,77.30
2022-10-06T14:02:25.371Z,77.30
2022-10-06T14:05:23.595Z,77.40
2022-10-06T14:07:51.835Z,77.40
2022-10-06T14:10:20.540Z,77.30
2022-10-06T14:12:48.642Z,77.20
2022-10-06T14:15:18.486Z,77.20
2022-10-06T14:17:46.495Z,77.20
2022-10-06T14:20:41.954Z,77.20
2022-10-06T14:23:35.483Z,77.20
2022-10-06T14:26:03.553Z,77.30
2022-10-06T14:28:31.626Z,77.20
2022-10-06T14:30:59.722Z,77.20
2022-10-06T14:33:27.840Z,77.20
2022-10-06T14:36:06.220Z,77.20
2022-10-06T14:38:34.250Z,77.10
2022-10-06T14:41:03.069Z,77.20
2022-10-06T14:43:31.115Z,77.20
2022-10-06T14:46:03.973Z,77.10
2022-10-06T14:48:34.318Z,77.10
2022-10-06T14:51:04.032Z,77.10
2022-10-06T14:53:33.923Z,77.10
2022-10-06T14:56:03.207Z,77.20
2022-10-06T14:58:32.101Z,77.10
2022-10-06T15:01:05.611Z,77.20
2022-10-06T15:03:34.175Z,77.10
2022-10-06T15:06:21.021Z,77.10
2022-10-06T15:08:53.706Z,77.10
2022-10-06T15:11:22.092Z,77.10
2022-10-06T15:13:50.184Z,77.20
2022-10-06T15:16:18.360Z,77.10
2022-10-06T15:18:46.711Z,77.10
2022-10-06T15:21:14.796Z,77.10
2022-10-06T15:23:42.905Z,77.00
2022-10-06T15:26:29.754Z,77.10
2022-10-06T15:29:06.166Z,77.10
2022-10-06T15:31:35.349Z,77.10
2022-10-06T15:34:04.719Z,77.00
2022-10-06T15:36:33.894Z,77.00
2022-10-06T15:39:05.769Z,77.00
2022-10-06T15:41:35.453Z,77.10
2022-10-06T15:44:03.578Z,77.00
2022-10-06T15:46:32.636Z,77.00
2022-10-06T15:49:02.232Z,77.00
2022-10-06T15:51:31.158Z,77.10
2022-10-06T15:54:02.069Z,77.10
2022-10-06T15:56:31.199Z,77.10
2022-10-06T15:59:00.760Z,77.10
2022-10-06T16:01:34.767Z,77.10
2022-10-06T16:04:09.356Z,77.10
2022-10-06T16:06:50.777Z,77.10
2022-10-06T16:09:19.604Z,77.10
2022-10-06T16:11:48.039Z,77.10
2022-10-06T16:14:29.395Z,77.10
2022-10-06T16:17:02.974Z,77.10
2022-10-06T16:19:32.027Z,77.20
2022-10-06T16:22:06.810Z,77.30
2022-10-06T16:24:35.175Z,77.10
2022-10-06T16:27:03.381Z,77.10
2022-10-06T16:29:32.994Z,77.20
2022-10-06T16:32:01.576Z,77.10
2022-10-06T16:34:31.380Z,77.20
2022-10-06T16:36:59.569Z,77.10
2022-10-06T16:39:27.912Z,77.10
2022-10-06T16:42:03.824Z,77.10
2022-10-06T16:44:33.282Z,77.10
2022-10-06T16:47:01.602Z,77.10
2022-10-06T16:49:29.766Z,77.10
2022-10-06T16:51:58.185Z,77.10
2022-10-06T16:54:26.697Z,77.10
2022-10-06T16:56:55.609Z,77.10
2022-10-06T16:59:26.012Z,77.10
2022-10-06T17:02:01.938Z,77.10
2022-10-06T17:04:33.063Z,77.10
2022-10-06T17:07:04.325Z,77.20
2022-10-06T17:09:32.376Z,77.10
2022-10-06T17:12:09.298Z,77.10
2022-10-06T17:14:37.814Z,77.10
2022-10-06T17:17:07.560Z,77.10
2022-10-06T17:19:35.680Z,77.10
2022-10-06T17:22:03.742Z,77.10
2022-10-06T17:24:31.803Z,77.10
2022-10-06T17:27:00.453Z,77.10
2022-10-06T17:29:28.641Z,77.10
2022-10-06T17:32:00.152Z,77.00
2022-10-06T17:34:32.735Z,77.10
2022-10-06T17:37:02.324Z,77.10
2022-10-06T17:39:30.637Z,77.10
2022-10-06T17:41:58.714Z,77.10
2022-10-06T17:44:28.557Z,77.10
2022-10-06T17:46:57.976Z,77.10
2022-10-06T17:49:26.156Z,77.00
2022-10-06T17:51:55.933Z,77.10
2022-10-06T17:54:24.979Z,77.00
2022-10-06T17:56:54.196Z,77.00
2022-10-06T17:59:23.269Z,77.00
2022-10-06T18:01:51.783Z,77.00
2022-10-06T18:04:20.330Z,77.00
2022-10-06T18:06:48.570Z,77.00
2022-10-06T18:09:18.672Z,77.00
2022-10-06T18:11:48.349Z,77.00
2022-10-06T18:14:17.369Z,77.00
2022-10-06T18:16:46.397Z,76.90
2022-10-06T18:19:15.394Z,76.90
2022-10-06T18:21:44.701Z,76.90
2022-10-06T18:24:16.149Z,76.80
2022-10-06T18:26:48.601Z,76.80
2022-10-06T18:29:17.009Z,76.80
2022-10-06T18:31:45.236Z,76.80
2022-10-06T18:37:01.613Z,76.70
2022-10-06T18:39:31.941Z,76.80
2022-10-06T18:42:05.783Z,76.70
2022-10-06T18:44:50.957Z,76.70
2022-10-06T18:47:36.532Z,76.70
2022-10-06T18:50:04.817Z,76.80
2022-10-06T18:52:32.967Z,76.70
2022-10-06T18:55:01.082Z,76.70
2022-10-06T18:57:31.217Z,76.70
2022-10-06T18:59:59.239Z,76.60
2022-10-06T19:02:27.445Z,76.60
2022-10-06T19:04:55.680Z,76.60
2022-10-06T19:07:23.811Z,76.60
2022-10-06T19:09:51.925Z,76.50
2022-10-06T19:12:19.999Z,76.50
2022-10-06T19:14:50.243Z,76.60
2022-10-06T19:17:18.341Z,76.50
2022-10-06T19:19:48.070Z,76.50
2022-10-06T19:22:16.224Z,76.50
2022-10-06T19:24:44.832Z,76.40
2022-10-06T19:27:15.141Z,76.50
2022-10-06T19:29:45.950Z,76.30
2022-10-06T19:32:16.706Z,76.40
2022-10-06T19:34:44.998Z,76.40
2022-10-06T19:37:13.091Z,76.40
2022-10-06T19:39:42.978Z,76.20
2022-10-06T19:42:28.789Z,76.30
2022-10-06T19:44:56.918Z,76.20
2022-10-06T19:47:27.017Z,76.20
2022-10-06T19:49:58.901Z,76.20
2022-10-06T19:52:27.905Z,76.20
2022-10-06T19:54:55.985Z,76.20
2022-10-06T19:57:24.044Z,76.10
2022-10-06T19:59:52.118Z,76.10
2022-10-06T20:02:20.408Z,76.10
2022-10-06T20:04:50.474Z,76.10
2022-10-06T20:07:21.695Z,76.00
2022-10-06T20:09:49.895Z,76.00
2022-10-06T20:12:22.272Z,76.00
2022-10-06T20:14:53.467Z,76.00
2022-10-06T20:17:22.248Z,75.90
2022-10-06T20:19:57.346Z,75.90
2022-10-06T20:22:26.601Z,75.90
2022-10-06T20:24:54.774Z,75.80
2022-10-06T20:27:22.846Z,75.80
2022-10-06T20:29:51.070Z,75.70
2022-10-06T20:32:19.177Z,75.80
2022-10-06T20:34:51.511Z,75.60
2022-10-06T20:37:19.738Z,75.70
2022-10-06T20:40:05.235Z,75.60
2022-10-06T20:42:33.670Z,75.60
2022-10-06T20:45:01.759Z,75.50
2022-10-06T20:47:29.878Z,75.60
2022-10-06T20:49:59.359Z,75.60
2022-10-06T20:52:27.471Z,75.50
2022-10-06T20:54:55.602Z,75.40
2022-10-06T20:57:44.088Z,75.40
2022-10-06T21:00:14.387Z,75.30
2022-10-06T21:02:42.674Z,75.30
2022-10-06T21:05:12.403Z,75.40
2022-10-06T21:07:40.623Z,75.40
2022-10-06T21:10:09.974Z,75.30
2022-10-06T21:12:38.184Z,75.30
2022-10-06T21:15:06.856Z,75.30
2022-10-06T21:17:35.037Z,75.20
2022-10-06T21:20:03.272Z,75.20
2022-10-06T21:22:32.808Z,75.30
2022-10-06T21:25:01.105Z,75.10
2022-10-06T21:27:29.922Z,75.20
2022-10-06T21:30:01.223Z,75.10
2022-10-06T21:32:29.372Z,75.10
2022-10-06T21:34:59.668Z,75.00
2022-10-06T21:37:27.923Z,75.10
2022-10-06T21:40:01.996Z,74.90
2022-10-06T21:42:31.158Z,75.00
2022-10-06T21:44:59.365Z,74.80
2022-10-06T21:47:27.653Z,74.90
2022-10-06T21:49:55.860Z,74.90
2022-10-06T21:52:24.605Z,74.80
2022-10-06T21:54:52.982Z,74.70
2022-10-06T21:57:22.541Z,74.70
2022-10-06T21:59:50.701Z,74.70
2022-10-06T22:02:18.984Z,74.60
2022-10-06T22:04:47.151Z,74.60
2022-10-06T22:07:15.352Z,74.60
2022-10-06T22:09:59.734Z,74.50
2022-10-06T22:12:29.284Z,74.60
2022-10-06T22:14:59.182Z,74.50
2022-10-06T22:17:27.477Z,74.50
2022-10-06T22:19:55.721Z,74.40
2022-10-06T22:22:23.886Z,74.50
2022-10-06T22:24:52.032Z,74.40
2022-10-06T22:27:20.205Z,74.30
2022-10-06T22:29:49.761Z,74.30
2022-10-06T22:32:18.414Z,74.30
2022-10-06T22:34:46.690Z,74.20
2022-10-06T22:37:14.882Z,74.20
2022-10-06T22:39:43.042Z,74.10
2022-10-06T22:42:17.175Z,74.20
2022-10-06T22:47:44.541Z,74.10
2022-10-06T22:50:12.965Z,74.20
2022-10-06T22:52:41.127Z,73.90
2022-10-06T22:55:09.699Z,74.00
2022-10-06T22:57:37.893Z,73.90
2022-10-06T23:00:06.838Z,73.90
2022-10-06T23:02:38.137Z,74.00
2022-10-06T23:05:08.547Z,73.80
2022-10-06T23:07:36.716Z,74.10
2022-10-06T23:10:05.095Z,73.80
2022-10-06T23:12:33.325Z,73.80
2022-10-06T23:15:01.486Z,73.90
2022-10-06T23:17:29.656Z,73.70
2022-10-06T23:20:00.999Z,73.70
2022-10-06T23:22:30.631Z,73.60
2022-10-06T23:24:58.847Z,73.60
2022-10-06T23:27:27.103Z,73.60
2022-10-06T23:29:55.261Z,73.70
2022-10-06T23:32:23.440Z,73.60
2022-10-06T23:34:51.592Z,73.60
2022-10-06T23:37:32.194Z,73.60
2022-10-06T23:40:01.734Z,73.50
2022-10-06T23:42:29.905Z,73.40
2022-10-06T23:44:58.132Z,73.50
2022-10-06T23:47:26.313Z,73.40
2022-10-06T23:49:54.474Z,73.50
2022-10-06T23:52:22.616Z,73.40
2022-10-06T23:54:51.192Z,73.40
2022-10-06T23:57:20.712Z,73.30
2022-10-06T23:59:48.874Z,73.40
